Time;durP1;ratioP1;P1;durP2;ratioP2;P2;SDS_P1;SDS_P2;PMS_P1;PMS_P2;Temp;Humidity;BMP_temperature;BMP_pressure;BME280_temperature;BME280_humidity;BME280_pressure;Samples;Min_cycle;Max_cycle;Signal;HPM_P1;HPM_P2
2022/07/08 00:01:22;;;;;;;3.30;1.55;;;14.90;99.90;;;;;;4999412;28;20025;-70
2022/07/08 00:03:47;;;;;;;6.22;1.05;;;14.90;99.90;;;;;;5000704;28;20030;-69
2022/07/08 00:06:13;;;;;;;1.65;0.80;;;15.00;99.90;;;;;;5000082;28;20413;-71
2022/07/08 00:08:38;;;;;;;2.50;0.60;;;15.00;99.90;;;;;;5001153;28;20034;-70
2022/07/08 00:11:04;;;;;;;2.60;0.70;;;14.90;99.90;;;;;;5000238;28;20030;-70
2022/07/08 00:13:29;;;;;;;2.03;0.77;;;14.90;99.90;;;;;;5001600;28;20026;-70
2022/07/08 00:15:55;;;;;;;3.17;0.63;;;14.90;99.90;;;;;;5002701;28;20140;-69
2022/07/08 00:18:20;;;;;;;3.38;0.75;;;14.90;99.90;;;;;;5005955;28;20054;-68
2022/07/08 00:20:46;;;;;;;2.63;1.02;;;15.00;99.90;;;;;;5005810;28;20041;-70
2022/07/08 00:23:11;;;;;;;9.88;0.85;;;14.90;99.90;;;;;;5006071;28;20052;-70
2022/07/08 00:25:37;;;;;;;10.10;1.00;;;14.90;99.90;;;;;;5005940;28;20040;-71
2022/07/08 00:28:03;;;;;;;10.20;0.80;;;14.90;99.90;;;;;;5005335;28;20057;-72
2022/07/08 00:30:29;;;;;;;10.25;1.05;;;14.90;99.90;;;;;;5005975;28;20022;-72
2022/07/08 00:32:55;;;;;;;0.50;0.50;;;14.90;99.90;;;;;;5006066;28;20038;-69
2022/07/08 00:35:21;;;;;;;2.63;0.85;;;14.90;99.90;;;;;;5005160;28;20077;-70
2022/07/08 00:37:46;;;;;;;2.03;1.00;;;14.80;99.90;;;;;;5005783;28;20505;-70
2022/07/08 00:40:13;;;;;;;3.33;1.00;;;14.90;99.90;;;;;;5005342;28;20039;-70
2022/07/08 00:42:39;;;;;;;0.75;0.47;;;14.90;99.90;;;;;;5005482;28;20038;-70
2022/07/08 00:45:05;;;;;;;8.15;0.93;;;14.90;99.90;;;;;;5005848;28;20033;-69
2022/07/08 00:47:31;;;;;;;8.63;1.42;;;14.90;99.90;;;;;;5005159;28;20062;-71
2022/07/08 00:49:56;;;;;;;2.80;1.15;;;14.80;99.90;;;;;;5004997;28;20042;-70
2022/07/08 00:52:23;;;;;;;2.80;0.77;;;14.90;99.90;;;;;;5005466;28;20031;-70
2022/07/08 00:54:49;;;;;;;4.72;0.73;;;14.90;99.90;;;;;;5005522;28;20042;-70
2022/07/08 00:57:15;;;;;;;14.25;1.10;;;14.90;99.90;;;;;;5004618;28;20069;-69
2022/07/08 00:59:42;;;;;;;8.68;1.30;;;14.90;99.90;;;;;;5005285;28;21386;-70
2022/07/08 01:02:08;;;;;;;1.95;1.27;;;14.80;99.90;;;;;;5004971;28;20034;-70
2022/07/08 01:04:35;;;;;;;1.95;0.73;;;14.80;99.90;;;;;;5005180;28;20022;-71
2022/07/08 01:07:01;;;;;;;1.05;0.70;;;14.80;99.90;;;;;;5005198;28;20054;-69
2022/07/08 01:09:27;;;;;;;7.38;1.27;;;14.80;99.90;;;;;;5005425;28;20041;-70
2022/07/08 01:11:52;;;;;;;4.85;1.20;;;14.80;99.90;;;;;;5004434;28;20026;-71
2022/07/08 01:14:18;;;;;;;3.40;0.95;;;14.90;99.90;;;;;;5005058;28;20027;-70
2022/07/08 01:16:44;;;;;;;4.72;1.23;;;14.80;99.90;;;;;;5004842;28;20030;-71
2022/07/08 01:19:09;;;;;;;7.30;0.82;;;14.70;99.90;;;;;;5004806;28;20112;-70
2022/07/08 01:21:35;;;;;;;3.28;1.25;;;14.80;99.90;;;;;;5005046;28;20081;-70
2022/07/08 01:24:01;;;;;;;3.05;0.90;;;14.80;99.90;;;;;;5004970;28;20023;-72
2022/07/08 01:26:27;;;;;;;2.72;0.85;;;14.80;99.90;;;;;;5003630;28;20050;-70
2022/07/08 01:28:52;;;;;;;1.67;0.68;;;14.70;99.90;;;;;;5004317;28;20023;-70
2022/07/08 01:31:18;;;;;;;6.40;0.95;;;14.70;99.90;;;;;;5004728;28;20029;-70
2022/07/08 01:33:43;;;;;;;1.08;0.68;;;14.70;99.90;;;;;;5004676;28;20026;-68
2022/07/08 01:36:09;;;;;;;5.60;1.08;;;14.70;99.90;;;;;;5004551;28;20035;-71
2022/07/08 01:38:36;;;;;;;0.43;0.43;;;14.70;99.90;;;;;;5002906;28;20790;-71
2022/07/08 01:41:02;;;;;;;4.55;0.77;;;14.70;99.90;;;;;;5004219;28;20033;-70
2022/07/08 01:43:28;;;;;;;3.47;0.77;;;14.70;99.90;;;;;;5004967;28;20034;-72
2022/07/08 01:45:53;;;;;;;1.10;0.75;;;14.60;99.90;;;;;;5003779;28;20042;-70
2022/07/08 01:48:19;;;;;;;9.23;0.85;;;14.60;99.90;;;;;;5004222;28;20030;-70
2022/07/08 01:50:45;;;;;;;6.55;0.73;;;14.60;99.90;;;;;;5004466;28;20027;-71
2022/07/08 01:53:11;;;;;;;0.40;0.40;;;14.70;99.90;;;;;;5004283;28;20406;-71
2022/07/08 01:55:37;;;;;;;8.00;1.20;;;14.60;99.90;;;;;;5004249;28;20031;-71
2022/07/08 01:58:03;;;;;;;8.93;1.33;;;14.60;99.90;;;;;;5004364;28;20559;-70
2022/07/08 02:00:29;;;;;;;7.57;0.95;;;14.70;99.90;;;;;;5004093;28;20034;-71
2022/07/08 02:02:55;;;;;;;1.10;0.68;;;14.60;99.90;;;;;;5004104;28;20077;-70
2022/07/08 02:05:21;;;;;;;7.18;1.17;;;14.60;99.90;;;;;;5004376;28;20022;-70
2022/07/08 02:07:46;;;;;;;0.50;0.50;;;14.60;99.90;;;;;;5003662;28;20526;-70
2022/07/08 02:10:12;;;;;;;3.63;1.15;;;14.70;99.90;;;;;;5003445;28;20026;-69
2022/07/08 02:12:37;;;;;;;1.80;0.85;;;14.70;99.90;;;;;;5003920;28;20033;-71
2022/07/08 02:15:05;;;;;;;8.05;1.50;;;14.60;99.90;;;;;;5003876;28;20031;-70
2022/07/08 02:17:35;;;;;;;1.75;0.88;;;14.60;99.90;;;;;;5003909;28;20102;-69
2022/07/08 02:20:05;;;;;;;2.40;1.10;;;14.60;99.90;;;;;;5004068;28;20120;-69
2022/07/08 02:22:31;;;;;;;7.53;1.45;;;14.60;99.90;;;;;;5003579;28;20049;-70
2022/07/08 02:24:57;;;;;;;0.93;0.77;;;14.60;99.90;;;;;;5003859;28;20034;-72
2022/07/08 02:27:23;;;;;;;3.58;0.75;;;14.50;99.90;;;;;;5003641;28;20053;-71
2022/07/08 02:29:48;;;;;;;2.67;1.08;;;14.50;99.90;;;;;;5003149;28;20060;-70
2022/07/08 02:32:14;;;;;;;0.90;0.68;;;14.50;99.90;;;;;;5003306;28;20050;-69
2022/07/08 02:34:40;;;;;;;14.07;1.92;;;14.50;99.90;;;;;;5003722;28;20037;-70
2022/07/08 02:37:06;;;;;;;0.50;0.50;;;14.40;99.90;;;;;;5003443;28;20034;-71
2022/07/08 02:39:31;;;;;;;4.75;0.88;;;14.40;99.90;;;;;;5003035;28;20079;-70
2022/07/08 02:41:57;;;;;;;1.58;0.70;;;14.40;99.90;;;;;;5002921;28;20046;-69
2022/07/08 02:44:22;;;;;;;2.53;0.70;;;14.30;99.90;;;;;;5003007;28;20038;-70
2022/07/08 02:46:48;;;;;;;1.17;0.77;;;14.30;99.90;;;;;;5003314;28;20038;-71
2022/07/08 02:49:14;;;;;;;3.13;0.85;;;14.30;99.90;;;;;;5003166;28;20076;-69
2022/07/08 02:51:39;;;;;;;6.32;1.23;;;14.20;99.90;;;;;;5003367;28;20027;-70
2022/07/08 02:54:06;;;;;;;1.40;0.80;;;14.20;99.90;;;;;;5003384;28;20034;-70
2022/07/08 02:56:32;;;;;;;8.23;1.70;;;14.20;99.90;;;;;;5001666;28;20171;-72
2022/07/08 02:58:58;;;;;;;6.75;1.38;;;14.20;99.90;;;;;;5003364;28;20026;-71
2022/07/08 03:01:24;;;;;;;11.27;1.60;;;14.20;99.90;;;;;;5003194;28;20026;-71
2022/07/08 03:03:50;;;;;;;4.47;1.05;;;14.20;99.90;;;;;;5002881;28;20033;-70
2022/07/08 03:06:15;;;;;;;13.43;1.35;;;14.20;99.90;;;;;;5003143;28;20044;-69
2022/07/08 03:08:41;;;;;;;1.08;0.50;;;14.20;99.90;;;;;;5002713;28;20022;-71
2022/07/08 03:11:06;;;;;;;7.90;0.93;;;14.20;99.90;;;;;;5002742;28;20052;-69
2022/07/08 03:13:35;;;;;;;9.13;0.98;;;14.20;99.90;;;;;;5003165;28;20043;-71
2022/07/08 03:16:01;;;;;;;5.70;0.95;;;14.20;99.90;;;;;;5002759;28;20062;-70
2022/07/08 03:18:27;;;;;;;1.50;0.77;;;14.20;99.90;;;;;;5002622;28;20022;-70
2022/07/08 03:20:52;;;;;;;7.10;0.80;;;14.30;99.90;;;;;;5002672;28;20156;-69
2022/07/08 03:23:18;;;;;;;7.95;0.85;;;14.20;99.90;;;;;;5002567;28;20030;-70
2022/07/08 03:25:43;;;;;;;2.42;1.10;;;14.30;99.90;;;;;;5002542;28;20022;-69
2022/07/08 03:28:09;;;;;;;4.78;1.42;;;14.30;99.90;;;;;;5002807;28;20053;-70
2022/07/08 03:30:34;;;;;;;4.78;1.35;;;14.30;99.90;;;;;;5002566;28;20026;-71
2022/07/08 03:33:00;;;;;;;2.75;1.10;;;14.30;99.90;;;;;;5002449;28;20030;-70
2022/07/08 03:35:26;;;;;;;14.90;1.80;;;14.30;99.90;;;;;;5002926;28;20082;-69
2022/07/08 03:37:52;;;;;;;5.97;1.23;;;14.30;99.90;;;;;;5001561;28;20022;-70
2022/07/08 03:43:02;;;;;;;11.05;1.30;;;14.30;99.90;;;;;;5002416;28;20497;-71
2022/07/08 03:45:27;;;;;;;6.07;1.23;;;14.20;99.90;;;;;;5002394;28;20038;-70
2022/07/08 03:47:53;;;;;;;0.45;0.40;;;14.20;99.90;;;;;;5002315;28;20038;-68
2022/07/08 03:50:19;;;;;;;2.97;0.75;;;14.20;99.90;;;;;;5001902;28;20758;-69
2022/07/08 03:52:45;;;;;;;0.73;0.52;;;14.20;99.90;;;;;;5002306;28;20023;-70
2022/07/08 03:55:11;;;;;;;1.48;1.10;;;14.20;99.90;;;;;;5002289;28;20030;-70
2022/07/08 03:57:37;;;;;;;6.40;1.58;;;14.20;99.90;;;;;;5002506;28;20033;-71
2022/07/08 04:00:07;;;;;;;9.35;1.05;;;14.20;99.90;;;;;;5002217;28;20022;-71
2022/07/08 04:02:34;;;;;;;2.33;0.80;;;14.20;99.90;;;;;;5002426;28;20032;-69
2022/07/08 04:05:00;;;;;;;2.47;0.60;;;14.10;99.90;;;;;;5002590;28;20037;-70
2022/07/08 04:07:26;;;;;;;14.45;1.58;;;14.10;99.90;;;;;;5001418;28;20042;-70
2022/07/08 04:09:51;;;;;;;11.52;1.48;;;14.10;99.90;;;;;;5002420;28;20074;-69
2022/07/08 04:12:17;;;;;;;1.05;0.73;;;14.10;99.90;;;;;;5002213;28;20046;-69
2022/07/08 04:14:43;;;;;;;4.18;1.20;;;14.10;99.90;;;;;;5001536;28;20030;-70
2022/07/08 04:17:08;;;;;;;4.57;0.73;;;14.10;99.90;;;;;;5001977;28;20034;-71
2022/07/08 04:19:34;;;;;;;1.55;0.55;;;14.00;99.90;;;;;;5002325;28;20070;-70
2022/07/08 04:21:59;;;;;;;1.88;0.75;;;14.10;99.90;;;;;;5001519;28;20034;-70
2022/07/08 04:24:25;;;;;;;3.15;1.13;;;14.10;99.90;;;;;;5002323;28;20030;-70
2022/07/08 04:26:50;;;;;;;11.20;1.45;;;14.10;99.90;;;;;;5002080;28;20056;-71
2022/07/08 04:29:16;;;;;;;0.98;0.57;;;14.20;99.90;;;;;;5001391;28;20030;-70
2022/07/08 04:31:41;;;;;;;7.15;0.73;;;14.10;99.90;;;;;;5002045;28;20075;-72
2022/07/08 04:34:07;;;;;;;5.80;1.38;;;14.10;99.90;;;;;;5000641;28;20022;-70
2022/07/08 04:36:33;;;;;;;9.30;1.35;;;14.10;99.90;;;;;;5000625;28;20033;-71
2022/07/08 04:38:58;;;;;;;5.38;1.25;;;14.10;99.90;;;;;;5002028;28;20102;-72
2022/07/08 04:41:24;;;;;;;1.65;0.85;;;14.10;99.90;;;;;;5000808;28;20019;-70
2022/07/08 04:43:49;;;;;;;3.50;0.93;;;14.00;99.90;;;;;;5001850;28;20027;-70
2022/07/08 04:46:15;;;;;;;3.60;1.13;;;14.00;99.90;;;;;;5001606;28;21174;-70
2022/07/08 04:48:41;;;;;;;13.57;1.27;;;14.10;99.90;;;;;;5001655;28;20078;-70
2022/07/08 04:51:06;;;;;;;3.53;0.50;;;14.10;99.90;;;;;;5001812;28;20030;-70
2022/07/08 04:53:32;;;;;;;0.98;0.60;;;14.10;99.90;;;;;;5001867;28;20034;-69
2022/07/08 04:55:58;;;;;;;2.50;1.05;;;14.10;99.90;;;;;;5001441;28;20459;-69
2022/07/08 04:58:23;;;;;;;1.65;0.90;;;14.10;99.90;;;;;;5000842;28;20084;-70
2022/07/08 05:00:49;;;;;;;3.30;0.90;;;14.20;99.90;;;;;;5002477;28;20502;-70
2022/07/08 05:03:15;;;;;;;3.53;1.40;;;14.20;99.90;;;;;;5004424;28;20022;-70
2022/07/08 05:05:41;;;;;;;1.42;0.70;;;14.20;99.90;;;;;;5005376;28;20427;-69
2022/07/08 05:08:06;;;;;;;0.40;0.35;;;14.30;99.90;;;;;;5005154;28;20086;-71
2022/07/08 05:10:32;;;;;;;11.93;2.42;;;14.30;99.90;;;;;;5005113;28;20031;-71
2022/07/08 05:12:58;;;;;;;4.60;1.40;;;14.30;99.90;;;;;;5005617;28;20026;-71
2022/07/08 05:15:25;;;;;;;1.08;0.55;;;14.40;99.90;;;;;;5003633;28;20050;-71
2022/07/08 05:17:52;;;;;;;5.35;0.60;;;14.40;99.90;;;;;;5004935;28;20547;-70
2022/07/08 05:20:18;;;;;;;1.38;0.60;;;14.40;99.90;;;;;;5005070;28;20026;-69
2022/07/08 05:22:44;;;;;;;6.65;0.82;;;14.40;99.90;;;;;;5002651;28;20038;-70
2022/07/08 05:25:10;;;;;;;0.55;0.32;;;14.50;99.90;;;;;;5002194;28;20023;-69
2022/07/08 05:27:36;;;;;;;11.13;1.52;;;14.50;99.90;;;;;;5004737;28;20030;-70
2022/07/08 05:30:03;;;;;;;15.05;1.08;;;14.50;99.90;;;;;;5004721;28;20029;-70
2022/07/08 05:32:29;;;;;;;5.05;0.90;;;14.50;99.90;;;;;;5002910;28;20022;-69
2022/07/08 05:34:55;;;;;;;1.70;0.77;;;14.60;99.90;;;;;;5003308;28;20082;-72
2022/07/08 05:37:21;;;;;;;6.13;0.80;;;14.60;99.90;;;;;;5001834;28;20073;-68
2022/07/08 05:39:46;;;;;;;10.52;2.25;;;14.60;99.90;;;;;;5003946;28;20042;-70
2022/07/08 05:42:12;;;;;;;1.95;0.95;;;14.70;99.90;;;;;;5001741;28;20108;-76
2022/07/08 05:44:41;;;;;;;6.22;1.13;;;14.70;99.90;;;;;;5000356;28;20041;-70
2022/07/08 05:47:07;;;;;;;2.60;1.20;;;14.70;99.90;;;;;;5003372;28;20042;-72
2022/07/08 05:49:35;;;;;;;11.80;1.77;;;14.70;99.90;;;;;;5004364;28;20062;-71
2022/07/08 05:52:02;;;;;;;4.47;1.25;;;14.80;99.90;;;;;;5003012;28;20065;-70
2022/07/08 05:54:27;;;;;;;4.05;1.40;;;14.70;99.90;;;;;;5002304;28;20033;-69
2022/07/08 05:56:53;;;;;;;4.80;1.13;;;14.80;99.90;;;;;;5002050;28;20022;-70
2022/07/08 05:59:19;;;;;;;1.92;1.05;;;14.80;99.90;;;;;;5002036;28;20026;-70
2022/07/08 06:01:44;;;;;;;5.55;1.27;;;14.90;99.90;;;;;;5002197;28;20053;-70
2022/07/08 06:04:10;;;;;;;1.60;0.47;;;14.90;99.90;;;;;;5004221;28;20052;-71
2022/07/08 06:06:35;;;;;;;9.32;1.27;;;14.90;99.90;;;;;;5003008;28;20046;-70
2022/07/08 06:09:01;;;;;;;4.80;1.15;;;15.00;99.90;;;;;;5001813;28;20065;-72
2022/07/08 06:11:27;;;;;;;1.85;1.00;;;15.00;99.90;;;;;;5004216;28;20059;-70
2022/07/08 06:13:53;;;;;;;1.92;0.80;;;15.10;99.90;;;;;;5002521;28;20065;-69
2022/07/08 06:16:19;;;;;;;1.95;0.77;;;15.20;99.90;;;;;;5004065;28;20044;-69
2022/07/08 06:18:44;;;;;;;5.22;0.98;;;15.30;99.90;;;;;;5002913;28;20045;-69
2022/07/08 06:21:10;;;;;;;1.58;0.88;;;15.30;99.90;;;;;;5001476;28;20035;-69
2022/07/08 06:23:35;;;;;;;2.78;1.02;;;15.40;99.90;;;;;;5003498;28;20039;-70
2022/07/08 06:26:01;;;;;;;7.50;1.10;;;15.30;99.90;;;;;;5002967;28;20042;-70
2022/07/08 06:28:27;;;;;;;2.40;1.30;;;15.30;99.90;;;;;;5002519;28;20026;-70
2022/07/08 06:30:56;;;;;;;6.20;1.15;;;15.30;99.90;;;;;;5002380;28;20034;-72
2022/07/08 06:33:21;;;;;;;7.68;0.98;;;15.30;99.90;;;;;;5001708;28;20026;-70
2022/07/08 06:35:47;;;;;;;2.55;0.93;;;15.40;99.90;;;;;;5002941;28;20022;-69
2022/07/08 06:38:13;;;;;;;3.50;1.05;;;15.40;99.90;;;;;;5002831;28;20102;-69
2022/07/08 06:40:39;;;;;;;4.20;1.42;;;15.60;99.90;;;;;;5001393;28;20022;-69
2022/07/08 06:43:04;;;;;;;3.90;1.45;;;15.70;99.90;;;;;;5002038;28;20030;-73
2022/07/08 06:45:32;;;;;;;7.95;1.48;;;15.70;99.90;;;;;;5002246;28;20038;-71
2022/07/08 06:47:59;;;;;;;10.27;0.93;;;15.80;99.90;;;;;;5001804;28;20073;-73
2022/07/08 06:50:24;;;;;;;6.88;1.48;;;15.80;99.90;;;;;;5002736;28;20023;-71
2022/07/08 06:52:50;;;;;;;2.72;1.15;;;15.80;99.90;;;;;;5001524;28;20143;-72
2022/07/08 06:55:15;;;;;;;2.03;0.75;;;15.90;99.90;;;;;;5002228;28;20095;-71
2022/07/08 06:57:41;;;;;;;8.07;1.40;;;15.90;99.90;;;;;;5001953;28;20486;-70
2022/07/08 07:00:07;;;;;;;3.42;1.05;;;15.90;99.90;;;;;;5001650;28;20026;-73
2022/07/08 07:02:33;;;;;;;4.97;1.23;;;15.90;99.90;;;;;;5000994;28;20030;-71
2022/07/08 07:04:58;;;;;;;9.20;0.90;;;15.90;99.90;;;;;;5002134;28;20118;-70
2022/07/08 07:07:24;;;;;;;0.88;0.65;;;15.90;99.90;;;;;;5002942;28;20042;-72
2022/07/08 07:09:50;;;;;;;4.55;1.58;;;15.90;99.90;;;;;;5001202;28;20057;-70
2022/07/08 07:12:16;;;;;;;6.18;0.73;;;15.80;99.90;;;;;;5003098;28;20082;-69
2022/07/08 07:14:42;;;;;;;8.15;1.20;;;15.90;99.90;;;;;;5001779;28;20114;-69
2022/07/08 07:17:07;;;;;;;0.65;0.47;;;15.90;99.90;;;;;;5001977;28;20610;-72
2022/07/08 07:19:33;;;;;;;13.60;1.77;;;15.90;99.90;;;;;;5000106;28;20046;-69
2022/07/08 07:21:59;;;;;;;3.30;1.15;;;15.80;99.90;;;;;;5001857;28;20395;-72
2022/07/08 07:24:25;;;;;;;1.65;1.02;;;15.80;99.90;;;;;;5001892;28;20390;-70
2022/07/08 07:26:50;;;;;;;3.22;1.15;;;15.90;99.90;;;;;;5002646;28;20093;-71
2022/07/08 07:29:16;;;;;;;6.07;1.45;;;15.90;99.90;;;;;;5002543;28;20026;-72
2022/07/08 07:31:41;;;;;;;3.30;1.05;;;15.90;99.90;;;;;;5000531;28;20054;-72
2022/07/08 07:34:07;;;;;;;4.95;1.48;;;15.90;99.90;;;;;;5001778;28;20031;-70
2022/07/08 07:36:33;;;;;;;3.17;1.23;;;15.90;99.90;;;;;;4999734;28;20030;-70
2022/07/08 07:38:59;;;;;;;5.20;1.27;;;15.80;99.90;;;;;;5001616;28;20510;-73
2022/07/08 07:41:24;;;;;;;4.47;1.50;;;16.00;99.90;;;;;;4999597;28;20089;-68
2022/07/08 07:43:50;;;;;;;6.93;1.30;;;16.00;99.90;;;;;;4998946;28;20030;-68
2022/07/08 07:46:17;;;;;;;3.70;1.10;;;16.00;99.90;;;;;;4998482;28;20394;-69
2022/07/08 07:48:43;;;;;;;5.07;1.27;;;15.90;99.90;;;;;;4998700;28;20030;-70
2022/07/08 07:51:08;;;;;;;3.22;1.15;;;15.90;99.90;;;;;;4998980;28;20039;-70
2022/07/08 07:53:35;;;;;;;10.48;1.60;;;15.90;99.90;;;;;;5001101;28;20053;-73
2022/07/08 07:56:01;;;;;;;8.68;1.33;;;15.90;99.90;;;;;;4996599;28;20460;-70
2022/07/08 07:58:26;;;;;;;6.13;1.25;;;15.90;99.90;;;;;;5001713;28;20092;-70
2022/07/08 08:00:52;;;;;;;2.15;1.30;;;16.00;99.90;;;;;;5000390;28;20122;-72
2022/07/08 08:03:18;;;;;;;8.77;1.15;;;15.90;99.90;;;;;;5000211;28;20022;-70
2022/07/08 08:05:44;;;;;;;2.30;0.98;;;16.00;99.90;;;;;;4998483;28;20093;-71
2022/07/08 08:08:10;;;;;;;8.57;1.33;;;16.10;99.90;;;;;;5000463;28;20045;-71
2022/07/08 08:10:36;;;;;;;9.13;2.30;;;16.00;99.90;;;;;;5001066;28;20030;-70
2022/07/08 08:13:02;;;;;;;6.57;1.20;;;16.10;99.90;;;;;;5000724;28;20027;-71
2022/07/08 08:15:29;;;;;;;0.47;0.47;;;16.10;99.90;;;;;;5002301;28;20030;-72
2022/07/08 08:17:58;;;;;;;0.90;0.65;;;16.10;99.90;;;;;;4998952;28;21595;-71
2022/07/08 08:20:26;;;;;;;2.85;0.93;;;16.20;99.90;;;;;;4999021;28;20038;-70
2022/07/08 08:22:52;;;;;;;5.95;1.30;;;16.30;99.90;;;;;;4998307;28;20053;-71
2022/07/08 08:25:18;;;;;;;6.93;1.15;;;16.30;99.90;;;;;;4999221;28;20053;-69
2022/07/08 08:27:44;;;;;;;2.35;0.80;;;16.40;99.90;;;;;;5000049;28;20483;-70
2022/07/08 08:30:10;;;;;;;9.15;1.20;;;16.40;99.90;;;;;;5001846;28;20058;-70
2022/07/08 08:32:36;;;;;;;4.53;1.23;;;16.40;99.90;;;;;;5001222;28;20026;-70
2022/07/08 08:35:01;;;;;;;2.95;1.33;;;16.40;99.90;;;;;;5001474;28;20554;-76
2022/07/08 08:37:27;;;;;;;3.75;0.75;;;16.50;99.90;;;;;;5005167;28;20030;-70
2022/07/08 08:39:53;;;;;;;11.38;1.52;;;16.50;99.90;;;;;;5002906;28;20042;-69
2022/07/08 08:42:19;;;;;;;7.90;1.77;;;16.50;99.90;;;;;;5005564;28;20027;-73
2022/07/08 08:44:49;;;;;;;2.25;1.00;;;16.40;99.90;;;;;;5005782;28;20022;-69
2022/07/08 08:47:20;;;;;;;6.20;1.63;;;16.40;99.90;;;;;;5004246;28;20034;-70
2022/07/08 08:49:49;;;;;;;1.95;1.08;;;16.40;99.90;;;;;;5005719;28;20113;-71
2022/07/08 08:52:15;;;;;;;3.25;0.90;;;16.40;99.90;;;;;;5005252;28;20030;-71
2022/07/08 08:54:42;;;;;;;4.22;1.23;;;16.30;99.90;;;;;;5004380;28;20038;-69
2022/07/08 08:57:07;;;;;;;6.55;1.17;;;16.40;99.90;;;;;;5002762;28;20094;-69
2022/07/08 08:59:35;;;;;;;2.28;0.73;;;16.40;99.90;;;;;;5002794;28;20077;-71
2022/07/08 09:02:04;;;;;;;3.72;1.63;;;16.40;99.90;;;;;;5001896;28;20039;-72
2022/07/08 09:04:31;;;;;;;7.53;1.45;;;16.40;99.90;;;;;;5003705;28;20045;-70
2022/07/08 09:07:00;;;;;;;1.35;0.80;;;16.40;99.90;;;;;;5002791;28;20110;-69
2022/07/08 09:09:26;;;;;;;4.38;1.52;;;16.60;99.90;;;;;;5000982;28;20053;-72
2022/07/08 09:11:51;;;;;;;11.50;1.75;;;16.50;99.90;;;;;;5004055;28;20041;-69
2022/07/08 09:14:21;;;;;;;3.00;1.25;;;16.60;99.90;;;;;;5001844;28;20034;-69
2022/07/08 09:17:10;;;;;;;4.93;1.20;;;16.50;99.90;;;;;;5003558;28;20033;-69
2022/07/08 09:19:40;;;;;;;12.38;1.65;;;16.50;99.90;;;;;;5003481;28;20049;-70
2022/07/08 09:22:07;;;;;;;6.05;1.17;;;16.40;99.90;;;;;;5003246;28;20089;-71
2022/07/08 09:24:34;;;;;;;2.00;1.20;;;16.40;99.90;;;;;;5003898;28;20023;-69
2022/07/08 09:27:09;;;;;;;3.30;1.25;;;16.50;99.90;;;;;;5002982;28;20053;-72
2022/07/08 09:29:39;;;;;;;9.43;1.48;;;16.40;99.90;;;;;;5003872;28;20074;-70
2022/07/08 09:32:12;;;;;;;2.90;1.08;;;16.30;99.90;;;;;;5003893;28;20026;-70
2022/07/08 09:34:38;;;;;;;2.08;0.77;;;16.30;99.90;;;;;;5003511;28;20422;-73
2022/07/08 09:37:31;;;;;;;2.88;1.25;;;16.30;99.90;;;;;;4999893;28;20037;-68
2022/07/08 09:39:57;;;;;;;7.05;1.02;;;16.20;99.90;;;;;;5003867;28;20128;-72
2022/07/08 09:42:22;;;;;;;3.78;1.30;;;16.30;99.90;;;;;;5003924;28;20459;-70
2022/07/08 09:44:52;;;;;;;2.08;0.70;;;16.40;99.90;;;;;;5004535;28;20030;-69
2022/07/08 09:47:17;;;;;;;1.15;0.85;;;16.40;99.90;;;;;;4999949;28;20038;-70
2022/07/08 09:49:45;;;;;;;3.15;1.13;;;16.40;99.90;;;;;;5003298;28;20078;-68
2022/07/08 09:52:19;;;;;;;2.53;0.95;;;16.50;99.90;;;;;;5002778;28;20076;-71
2022/07/08 09:54:45;;;;;;;6.88;1.40;;;16.70;99.90;;;;;;5004302;28;20030;-69
2022/07/08 09:57:11;;;;;;;2.33;1.13;;;16.80;99.90;;;;;;5003114;28;20442;-70
2022/07/08 09:59:37;;;;;;;8.60;1.38;;;17.00;99.90;;;;;;5002879;28;21092;-70
2022/07/08 10:02:10;;;;;;;2.70;1.20;;;17.20;99.90;;;;;;4998876;28;20110;-71
2022/07/08 10:04:41;;;;;;;3.92;1.15;;;17.40;99.90;;;;;;5001708;28;20023;-67
2022/07/08 10:07:14;;;;;;;19.55;1.35;;;17.70;99.90;;;;;;5003074;28;20516;-67
2022/07/08 10:09:40;;;;;;;5.80;1.40;;;17.90;99.90;;;;;;5003024;28;20808;-71
2022/07/08 10:12:07;;;;;;;1.60;0.93;;;18.00;99.90;;;;;;5003476;28;20060;-71
2022/07/08 10:14:36;;;;;;;1.95;1.50;;;18.10;99.90;;;;;;4998417;28;20025;-69
2022/07/08 10:17:16;;;;;;;2.72;1.25;;;18.10;99.90;;;;;;4999543;28;20026;-68
2022/07/08 10:19:43;;;;;;;3.67;1.27;;;18.10;99.90;;;;;;5002774;28;20057;-71
2022/07/08 10:22:15;;;;;;;2.83;0.95;;;18.10;99.90;;;;;;4998955;28;20725;-73
2022/07/08 10:24:42;;;;;;;3.22;1.08;;;18.10;99.90;;;;;;5002553;28;20085;-71
2022/07/08 10:27:10;;;;;;;1.33;0.68;;;18.10;99.90;;;;;;5000981;28;20057;-71
2022/07/08 10:29:39;;;;;;;5.22;1.10;;;18.20;99.90;;;;;;4999666;28;20025;-71
2022/07/08 10:32:27;;;;;;;2.28;0.93;;;18.30;99.90;;;;;;4997418;28;20038;-69
2022/07/08 10:35:13;;;;;;;2.83;1.20;;;18.30;99.90;;;;;;5002073;28;20106;-69
2022/07/08 10:37:50;;;;;;;9.32;1.10;;;18.40;99.90;;;;;;5000800;28;20022;-70
2022/07/08 10:40:38;;;;;;;1.95;0.85;;;18.40;99.90;;;;;;5002462;28;20058;-69
2022/07/08 10:43:18;;;;;;;1.75;0.95;;;18.40;99.90;;;;;;4999364;28;20042;-68
2022/07/08 10:46:03;;;;;;;6.03;1.00;;;18.40;99.90;;;;;;5001753;28;20030;-69
2022/07/08 10:48:29;;;;;;;;;;;18.30;99.90;;;;;;5004019;28;20045;-70
2022/07/08 10:50:55;;;;;;;2.75;0.82;;;18.30;99.90;;;;;;5003327;28;19912;-69
2022/07/08 10:53:21;;;;;;;1.40;0.75;;;18.20;99.90;;;;;;5001575;28;20101;-69
2022/07/08 10:55:49;;;;;;;0.75;0.75;;;18.00;99.90;;;;;;5000512;28;20628;-72
2022/07/08 10:58:14;;;;;;;1.27;0.77;;;17.90;99.90;;;;;;4997809;28;21504;-70
2022/07/08 11:00:40;;;;;;;8.90;1.00;;;17.80;99.90;;;;;;5000368;28;20026;-70
2022/07/08 11:03:09;;;;;;;4.82;1.00;;;17.80;99.90;;;;;;5002422;28;20026;-71
2022/07/08 11:05:42;;;;;;;1.55;1.02;;;17.70;99.90;;;;;;5000768;28;20026;-72
2022/07/08 11:08:20;;;;;;;4.40;1.05;;;17.70;99.90;;;;;;5001444;28;20048;-72
2022/07/08 11:10:46;;;;;;;5.20;1.02;;;17.70;99.90;;;;;;5001380;28;20065;-71
2022/07/08 11:13:12;;;;;;;15.93;1.70;;;17.70;99.90;;;;;;5002008;28;20023;-72
2022/07/08 11:15:38;;;;;;;1.33;0.95;;;17.60;99.90;;;;;;5002417;28;20125;-68
2022/07/08 11:18:04;;;;;;;3.15;1.40;;;17.60;99.90;;;;;;5001681;28;20039;-71
2022/07/08 11:20:31;;;;;;;5.13;0.93;;;17.60;99.90;;;;;;5001264;28;20027;-73
2022/07/08 11:22:57;;;;;;;8.45;1.02;;;17.50;99.90;;;;;;5002848;28;20034;-72
2022/07/08 11:25:23;;;;;;;1.08;0.77;;;17.50;99.90;;;;;;5002380;28;20427;-70
2022/07/08 11:27:49;;;;;;;5.43;1.60;;;17.50;99.90;;;;;;5002731;28;20514;-71
2022/07/08 11:30:16;;;;;;;3.17;1.13;;;17.50;99.90;;;;;;5002781;28;20045;-70
2022/07/08 11:32:49;;;;;;;2.50;1.40;;;17.50;99.90;;;;;;5002309;28;20019;-71
2022/07/08 11:35:17;;;;;;;6.65;1.42;;;17.40;99.90;;;;;;5002635;28;20069;-72
2022/07/08 11:37:43;;;;;;;8.10;1.17;;;17.40;99.90;;;;;;5001169;28;20499;-70
2022/07/08 11:40:10;;;;;;;1.55;0.98;;;17.30;99.90;;;;;;5001885;28;20057;-71
2022/07/08 11:42:37;;;;;;;3.40;1.33;;;17.20;99.90;;;;;;5002078;28;20026;-71
2022/07/08 11:45:10;;;;;;;1.83;1.23;;;17.10;99.90;;;;;;5002169;28;20018;-70
2022/07/08 11:47:36;;;;;;;6.30;2.00;;;17.20;99.90;;;;;;5001967;28;20034;-71
2022/07/08 11:50:02;;;;;;;4.18;1.45;;;17.10;99.90;;;;;;5002722;28;20305;-70
2022/07/08 11:52:29;;;;;;;3.03;1.58;;;17.00;99.90;;;;;;5002231;28;20093;-71
2022/07/08 11:54:55;;;;;;;2.17;1.08;;;17.00;99.90;;;;;;5002330;28;20030;-71
2022/07/08 11:57:20;;;;;;;10.27;2.22;;;16.90;99.90;;;;;;4999778;28;20035;-71
2022/07/08 11:59:48;;;;;;;1.42;1.08;;;16.90;99.90;;;;;;5002162;28;20034;-70
2022/07/08 12:02:20;;;;;;;2.72;1.88;;;16.90;99.90;;;;;;4998936;28;20026;-71
2022/07/08 12:04:47;;;;;;;4.90;1.75;;;16.80;99.90;;;;;;5001423;28;20030;-72
2022/07/08 12:07:26;;;;;;;4.47;1.77;;;16.90;99.90;;;;;;5000020;28;20039;-71
2022/07/08 12:10:05;;;;;;;5.00;1.50;;;16.80;99.90;;;;;;5001404;28;20035;-71
2022/07/08 12:12:32;;;;;;;4.60;2.17;;;16.80;99.90;;;;;;5004113;28;20030;-69
2022/07/08 12:15:10;;;;;;;5.07;2.10;;;16.80;99.90;;;;;;5000733;28;20042;-71
2022/07/08 12:17:35;;;;;;;9.50;1.77;;;16.70;99.90;;;;;;5003956;28;20023;-76
2022/07/08 12:20:01;;;;;;;7.85;2.10;;;16.70;99.90;;;;;;5005503;28;20029;-73
2022/07/08 12:22:47;;;;;;;5.38;1.92;;;16.70;99.90;;;;;;5005498;28;20469;-73
2022/07/08 12:25:18;;;;;;;9.65;2.05;;;16.70;99.90;;;;;;5005051;28;20454;-72
2022/07/08 12:27:53;;;;;;;7.32;1.75;;;16.70;99.90;;;;;;5005142;28;20031;-72
2022/07/08 12:30:26;;;;;;;7.50;1.90;;;16.70;99.90;;;;;;5002219;28;20026;-74
2022/07/08 12:32:52;;;;;;;3.47;1.73;;;16.70;99.90;;;;;;5004705;28;20054;-73
2022/07/08 12:35:17;;;;;;;6.95;2.17;;;16.70;99.90;;;;;;5004737;28;20026;-72
2022/07/08 12:37:43;;;;;;;3.58;1.90;;;16.60;99.90;;;;;;5003689;28;20026;-71
2022/07/08 12:40:13;;;;;;;3.30;1.60;;;16.70;99.90;;;;;;5001962;28;20514;-74
2022/07/08 12:42:38;;;;;;;14.20;2.85;;;16.70;99.90;;;;;;5004572;28;20026;-73
2022/07/08 12:45:14;;;;;;;2.70;1.88;;;16.70;99.90;;;;;;5003632;28;20038;-73
2022/07/08 12:47:39;;;;;;;3.25;1.73;;;16.70;99.90;;;;;;5004461;28;20098;-71